X  Chiuso Dati meteorologici dell'aviazione (METAR)     LGEL Elefsis Airport
Temperatura
64°F Temperatura
52°F Punto di rugiada
64% Umidità



Vento
12 MPH
19 KM/O
5 M/S
10 KTS



160°
SSE
Condizioni attuali

Prevalentemente nuvoloso Prevalentemente nuvoloso
Pressione 1017.95 (hPa) - 30.06 (inHg)
Visibilità 6 (miglio) - 9.7 (km)
Aeroporto
Codice-Aeroporto LGEL

Posizione: Elefsis Airport
Distanza: 77 (mi)

Metar:
LGEL 291020Z 16010KT 9999 BKN025 18/11 Q1018

Ore: 29-02-2024 12:20 EET